createdAt,value
2022-11-26T00:01:22.255Z,12.87
2022-11-26T00:03:49.722Z,14.70
2022-11-26T00:06:32.151Z,13.93
2022-11-26T00:09:00.094Z,13.77
2022-11-26T00:11:27.687Z,13.30
2022-11-26T00:13:54.845Z,13.20
2022-11-26T00:16:21.939Z,12.40
2022-11-26T00:18:49.092Z,12.40
2022-11-26T00:21:23.828Z,11.73
2022-11-26T00:23:52.542Z,12.47
2022-11-26T00:26:24.965Z,11.10
2022-11-26T00:28:56.023Z,11.40
2022-11-26T00:31:24.362Z,11.43
2022-11-26T00:33:51.735Z,9.90
2022-11-26T00:36:27.506Z,10.50
2022-11-26T00:38:59.202Z,10.67
2022-11-26T00:41:31.175Z,10.30
2022-11-26T00:43:58.788Z,10.20
2022-11-26T00:46:25.954Z,10.70
2022-11-26T00:48:53.176Z,10.23
2022-11-26T00:51:27.585Z,10.47
2022-11-26T00:54:00.287Z,10.33
2022-11-26T00:56:27.791Z,10.20
2022-11-26T00:58:55.077Z,9.70
2022-11-26T01:01:28.837Z,11.00
2022-11-26T01:03:56.161Z,8.90
2022-11-26T01:06:37.030Z,9.90
2022-11-26T01:09:13.820Z,11.00
2022-11-26T01:11:40.897Z,10.70
2022-11-26T01:14:17.121Z,10.43
2022-11-26T01:16:46.406Z,10.50
2022-11-26T01:19:16.017Z,10.77
2022-11-26T01:21:43.660Z,10.83
2022-11-26T01:24:11.092Z,10.77
2022-11-26T01:26:45.073Z,11.37
2022-11-26T01:29:18.638Z,11.20
2022-11-26T01:31:46.179Z,11.60
2022-11-26T01:34:13.736Z,11.37
2022-11-26T01:36:42.235Z,11.50
2022-11-26T01:39:18.155Z,10.87
2022-11-26T01:41:59.055Z,9.50
2022-11-26T01:44:31.008Z,10.60
2022-11-26T01:46:59.542Z,11.40
2022-11-26T01:49:33.300Z,12.13
2022-11-26T01:52:12.142Z,9.83
2022-11-26T01:54:42.718Z,12.33
2022-11-26T01:57:17.962Z,10.77
2022-11-26T01:59:53.260Z,12.27
2022-11-26T02:02:23.398Z,10.77
2022-11-26T02:05:18.145Z,9.53
2022-11-26T02:07:46.294Z,10.50
2022-11-26T02:10:14.519Z,11.60
2022-11-26T02:12:43.091Z,10.40
2022-11-26T02:15:11.488Z,9.53
2022-11-26T02:18:14.035Z,10.93
2022-11-26T02:20:55.454Z,12.13
2022-11-26T02:24:05.153Z,10.37
2022-11-26T02:26:44.704Z,10.67
2022-11-26T02:29:36.331Z,12.33
2022-11-26T02:32:14.226Z,10.47
2022-11-26T02:34:49.678Z,11.23
2022-11-26T02:37:37.723Z,10.97
2022-11-26T02:40:08.221Z,10.20
2022-11-26T02:42:36.366Z,11.40
2022-11-26T02:45:10.183Z,11.07
2022-11-26T02:47:41.542Z,11.37
2022-11-26T02:50:16.542Z,11.17
2022-11-26T02:52:44.968Z,11.70
2022-11-26T02:55:15.372Z,11.07
2022-11-26T02:57:48.963Z,12.17
2022-11-26T03:00:18.015Z,13.10
2022-11-26T03:02:59.845Z,13.27
2022-11-26T03:05:32.837Z,10.33
2022-11-26T03:08:00.935Z,12.83
2022-11-26T03:10:29.416Z,11.93
2022-11-26T03:12:56.776Z,12.30
2022-11-26T03:15:24.203Z,11.33
2022-11-26T03:17:51.664Z,12.70
2022-11-26T03:20:18.866Z,13.10
2022-11-26T03:22:46.185Z,12.90
2022-11-26T03:25:13.592Z,11.23
2022-11-26T03:27:40.640Z,13.30
2022-11-26T03:30:08.748Z,12.40
2022-11-26T03:32:36.702Z,12.53
2022-11-26T03:35:04.656Z,13.20
2022-11-26T03:37:32.066Z,11.30
2022-11-26T03:39:59.060Z,10.67
2022-11-26T03:42:26.104Z,12.47
2022-11-26T03:44:53.238Z,11.33
2022-11-26T03:47:20.260Z,12.13
2022-11-26T03:49:47.293Z,10.97
2022-11-26T03:52:14.483Z,12.03
2022-11-26T03:54:41.644Z,12.37
2022-11-26T03:57:08.682Z,13.20
2022-11-26T03:59:35.793Z,12.67
2022-11-26T04:02:02.982Z,12.87
2022-11-26T04:04:30.164Z,12.90
2022-11-26T04:06:58.484Z,12.67
2022-11-26T04:09:25.571Z,12.43
2022-11-26T04:11:52.674Z,11.90
2022-11-26T04:14:19.777Z,13.20
2022-11-26T04:16:47.233Z,13.43
2022-11-26T04:19:14.452Z,14.37
2022-11-26T04:21:41.596Z,13.83
2022-11-26T04:24:08.920Z,13.17
2022-11-26T04:26:36.010Z,15.23
2022-11-26T04:29:03.757Z,13.83
2022-11-26T04:31:31.105Z,15.40
2022-11-26T04:33:58.263Z,15.20
2022-11-26T04:36:25.518Z,15.07
2022-11-26T04:38:52.563Z,14.30
2022-11-26T04:41:19.611Z,16.90
2022-11-26T04:43:46.749Z,15.63
2022-11-26T04:46:13.862Z,16.00
2022-11-26T04:48:41.094Z,15.60
2022-11-26T04:51:08.125Z,15.33
2022-11-26T04:53:35.214Z,15.10
2022-11-26T04:56:02.252Z,14.87
2022-11-26T04:58:29.493Z,14.83
2022-11-26T05:00:56.547Z,14.83
2022-11-26T05:03:23.706Z,13.50
2022-11-26T05:05:50.818Z,17.00
2022-11-26T05:08:17.937Z,14.20
2022-11-26T05:10:45.080Z,16.63
2022-11-26T05:13:12.336Z,16.30
2022-11-26T05:15:39.359Z,15.33
2022-11-26T05:18:06.469Z,19.60
2022-11-26T05:20:33.501Z,15.23
2022-11-26T05:23:00.584Z,18.43
2022-11-26T05:25:27.617Z,16.70
2022-11-26T05:27:54.755Z,13.17
2022-11-26T05:30:22.078Z,14.37
2022-11-26T05:32:49.148Z,16.20
2022-11-26T05:35:16.291Z,15.70
2022-11-26T05:37:43.293Z,14.83
2022-11-26T05:40:11.620Z,16.60
2022-11-26T05:42:39.435Z,15.10
2022-11-26T05:45:07.529Z,16.40
2022-11-26T05:47:34.614Z,14.90
2022-11-26T05:50:02.179Z,14.90
2022-11-26T05:52:29.369Z,16.53
2022-11-26T05:54:56.395Z,15.20
2022-11-26T05:57:23.453Z,16.00
2022-11-26T05:59:50.702Z,15.80
2022-11-26T06:02:18.220Z,17.13
2022-11-26T06:04:45.304Z,15.23
2022-11-26T06:07:12.489Z,18.23
2022-11-26T06:09:39.813Z,15.07
2022-11-26T06:12:07.246Z,16.50
2022-11-26T06:14:34.343Z,17.47
2022-11-26T06:17:01.390Z,17.63
2022-11-26T06:19:28.568Z,17.63
2022-11-26T06:21:55.620Z,18.07
2022-11-26T06:24:22.651Z,17.93
2022-11-26T06:26:49.865Z,18.47
2022-11-26T06:29:17.168Z,18.87
2022-11-26T06:31:44.316Z,17.37
2022-11-26T06:34:11.508Z,20.13
2022-11-26T06:36:38.618Z,19.43
2022-11-26T06:39:05.818Z,17.27
2022-11-26T06:41:33.224Z,17.63
2022-11-26T06:44:00.701Z,19.27
2022-11-26T06:46:28.131Z,17.13
2022-11-26T06:48:55.334Z,15.40
2022-11-26T06:51:22.536Z,16.10
2022-11-26T06:53:49.688Z,17.27
2022-11-26T06:56:19.126Z,14.20
2022-11-26T06:58:48.358Z,16.37
2022-11-26T07:01:19.752Z,15.47
2022-11-26T07:03:47.723Z,14.53
2022-11-26T07:06:25.060Z,18.50
2022-11-26T07:08:55.321Z,15.43
2022-11-26T07:11:24.249Z,15.50
2022-11-26T07:13:52.179Z,14.77
2022-11-26T07:16:19.586Z,15.20
2022-11-26T07:18:52.886Z,14.60
2022-11-26T07:21:23.413Z,13.50
2022-11-26T07:23:51.412Z,12.93
2022-11-26T07:26:21.950Z,14.30
2022-11-26T07:28:49.662Z,13.90
2022-11-26T07:31:20.334Z,14.90
2022-11-26T07:33:47.914Z,13.77
2022-11-26T07:36:22.387Z,13.77
2022-11-26T07:38:50.169Z,14.67
2022-11-26T07:41:19.734Z,13.60
2022-11-26T07:43:47.554Z,13.47
2022-11-26T07:46:19.707Z,15.13
2022-11-26T07:48:47.337Z,12.53
2022-11-26T07:51:27.442Z,12.37
2022-11-26T07:53:56.911Z,12.63
2022-11-26T07:56:23.943Z,12.07
2022-11-26T07:58:51.394Z,11.70
2022-11-26T08:01:24.266Z,13.70
2022-11-26T08:03:51.892Z,11.50
2022-11-26T08:06:23.602Z,11.77
2022-11-26T08:08:51.757Z,12.20
2022-11-26T08:11:25.679Z,10.00
2022-11-26T08:13:59.290Z,10.17
2022-11-26T08:16:28.870Z,10.20
2022-11-26T08:19:06.069Z,11.40
2022-11-26T08:21:33.915Z,8.97
2022-11-26T08:24:01.167Z,8.87
2022-11-26T08:26:34.697Z,9.17
2022-11-26T08:29:04.722Z,9.10
2022-11-26T08:31:32.203Z,9.07
2022-11-26T08:34:00.464Z,8.80
2022-11-26T08:36:30.149Z,9.00
2022-11-26T08:38:58.771Z,11.17
2022-11-26T08:41:26.202Z,9.10
2022-11-26T08:44:08.911Z,9.60
2022-11-26T08:46:41.579Z,8.90
2022-11-26T08:49:12.442Z,8.30
2022-11-26T08:51:39.594Z,8.40
2022-11-26T08:54:07.113Z,8.83
2022-11-26T08:56:34.689Z,9.17
2022-11-26T08:59:01.989Z,8.87
2022-11-26T09:01:32.730Z,9.30
2022-11-26T09:04:02.960Z,8.13
2022-11-26T09:06:33.297Z,8.50
2022-11-26T09:09:13.969Z,8.60
2022-11-26T09:11:57.852Z,9.77
2022-11-26T09:14:31.406Z,9.47
2022-11-26T09:16:58.967Z,8.60
2022-11-26T09:19:28.200Z,9.73
2022-11-26T09:21:55.770Z,10.80
2022-11-26T09:24:23.224Z,9.10
2022-11-26T09:26:50.921Z,7.30
2022-11-26T09:29:21.943Z,8.30
2022-11-26T09:32:21.533Z,7.73
2022-11-26T09:34:37.965Z,7.40
2022-11-26T09:37:05.444Z,7.17
2022-11-26T09:39:32.759Z,7.53
2022-11-26T09:42:14.016Z,8.17
2022-11-26T09:45:12.726Z,6.97
2022-11-26T09:47:49.082Z,7.03
2022-11-26T09:50:16.255Z,7.77
2022-11-26T09:53:25.723Z,6.90
2022-11-26T09:55:56.054Z,5.33
2022-11-26T09:58:40.665Z,6.30
2022-11-26T10:01:21.022Z,6.50
2022-11-26T10:03:48.939Z,5.30
2022-11-26T10:06:44.128Z,6.60
2022-11-26T10:09:22.661Z,5.23
2022-11-26T10:12:25.584Z,5.00
2022-11-26T10:15:17.411Z,6.60
2022-11-26T10:17:53.415Z,5.70
2022-11-26T10:20:58.188Z,5.57
2022-11-26T10:24:10.071Z,5.20
2022-11-26T10:26:39.799Z,4.80
2022-11-26T10:29:39.442Z,5.93
2022-11-26T10:32:26.116Z,6.50
2022-11-26T10:34:57.578Z,5.40
2022-11-26T10:37:27.182Z,4.90
2022-11-26T10:40:26.166Z,4.70
2022-11-26T10:43:12.524Z,5.00
2022-11-26T10:45:43.808Z,6.27
2022-11-26T10:48:34.328Z,4.27
2022-11-26T10:51:16.630Z,5.30
2022-11-26T10:53:53.024Z,4.10
2022-11-26T10:56:44.014Z,4.80
2022-11-26T10:59:31.638Z,4.83
2022-11-26T11:02:31.314Z,4.00
2022-11-26T11:05:03.545Z,4.13
2022-11-26T11:07:47.285Z,4.30
2022-11-26T11:10:21.949Z,5.13
2022-11-26T11:13:01.039Z,4.80
2022-11-26T11:15:35.535Z,3.60
2022-11-26T11:18:17.681Z,5.27
2022-11-26T11:21:05.170Z,4.53
2022-11-26T11:24:06.447Z,8.17
2022-11-26T11:26:25.901Z,4.03
2022-11-26T11:28:55.537Z,4.70
2022-11-26T11:31:26.290Z,4.40
2022-11-26T11:34:17.592Z,3.10
2022-11-26T11:36:58.560Z,4.27
2022-11-26T11:39:35.372Z,3.47
2022-11-26T11:42:07.796Z,4.27
2022-11-26T11:44:38.682Z,3.90
2022-11-26T11:47:26.968Z,3.70
2022-11-26T11:50:02.989Z,4.20
2022-11-26T11:52:51.797Z,4.43
2022-11-26T11:55:50.063Z,4.87
2022-11-26T11:58:41.993Z,4.13
2022-11-26T12:01:48.548Z,3.83
2022-11-26T12:05:18.640Z,3.80
2022-11-26T12:08:16.628Z,4.50
2022-11-26T12:11:05.822Z,6.20
2022-11-26T12:13:45.737Z,4.73
2022-11-26T12:16:15.191Z,4.60
2022-11-26T12:18:53.568Z,4.20
2022-11-26T12:21:55.252Z,4.23
2022-11-26T12:25:11.207Z,5.27
2022-11-26T12:27:45.345Z,4.50
2022-11-26T12:30:31.671Z,4.50
2022-11-26T12:33:36.402Z,6.67
2022-11-26T12:36:27.923Z,4.57
2022-11-26T12:39:00.148Z,4.47
2022-11-26T12:42:08.199Z,4.50
2022-11-26T12:44:42.028Z,5.10
2022-11-26T12:47:27.935Z,4.27
2022-11-26T12:50:15.950Z,4.70
2022-11-26T12:53:07.659Z,5.03
2022-11-26T12:55:53.542Z,4.80
2022-11-26T12:58:39.243Z,5.13
2022-11-26T13:01:06.414Z,5.13
2022-11-26T13:03:33.711Z,5.17
2022-11-26T13:06:12.760Z,4.97
2022-11-26T13:08:51.769Z,4.40
2022-11-26T13:11:26.994Z,4.50
2022-11-26T13:14:06.808Z,4.73
2022-11-26T13:16:39.124Z,4.40
2022-11-26T13:19:33.774Z,5.03
2022-11-26T13:22:26.687Z,5.77
2022-11-26T13:25:00.681Z,4.83
2022-11-26T13:28:24.054Z,4.93
2022-11-26T13:31:11.460Z,4.80
2022-11-26T13:33:59.621Z,5.10
2022-11-26T13:37:03.566Z,5.00
2022-11-26T13:40:29.113Z,3.97
2022-11-26T13:43:37.781Z,4.40
2022-11-26T13:46:24.625Z,6.20
2022-11-26T13:49:17.527Z,5.33
2022-11-26T13:51:58.649Z,6.53
2022-11-26T13:54:30.163Z,4.90
2022-11-26T13:57:08.583Z,4.97
2022-11-26T13:59:36.805Z,5.83
2022-11-26T14:02:35.422Z,4.40
2022-11-26T14:05:07.674Z,4.30
2022-11-26T14:07:34.941Z,4.07
2022-11-26T14:10:05.732Z,3.73
2022-11-26T14:13:03.923Z,5.20
2022-11-26T14:15:43.105Z,4.80
2022-11-26T14:18:16.321Z,3.90
2022-11-26T14:21:01.340Z,3.73
2022-11-26T14:23:50.304Z,4.50
2022-11-26T14:26:31.583Z,4.73
2022-11-26T14:29:07.985Z,4.70
2022-11-26T14:31:38.774Z,4.17
2022-11-26T14:34:24.989Z,4.63
2022-11-26T14:37:01.300Z,4.27
2022-11-26T14:39:31.695Z,4.30
2022-11-26T14:42:05.694Z,5.53
2022-11-26T14:44:34.548Z,5.63
2022-11-26T14:47:14.848Z,6.37
2022-11-26T14:49:54.412Z,5.27
2022-11-26T14:52:30.257Z,6.30
2022-11-26T14:55:01.617Z,6.80
2022-11-26T14:57:55.194Z,6.50
2022-11-26T15:00:30.016Z,4.77
2022-11-26T15:02:58.035Z,5.70
2022-11-26T15:05:31.761Z,6.60
2022-11-26T15:08:17.592Z,5.50
2022-11-26T15:11:02.015Z,5.57
2022-11-26T15:13:41.376Z,5.57
2022-11-26T15:16:31.343Z,5.70
2022-11-26T15:18:59.305Z,5.03
2022-11-26T15:21:28.451Z,5.10
2022-11-26T15:24:00.738Z,5.10
2022-11-26T15:26:35.657Z,5.87
2022-11-26T15:29:03.626Z,6.40
2022-11-26T15:31:41.967Z,5.30
2022-11-26T15:34:15.930Z,5.90
2022-11-26T15:36:43.102Z,4.90
2022-11-26T15:39:33.513Z,5.03
2022-11-26T15:42:23.307Z,5.20
2022-11-26T15:44:50.500Z,6.20
2022-11-26T15:47:23.047Z,5.97
2022-11-26T15:49:56.836Z,4.93
2022-11-26T15:52:30.769Z,6.83
2022-11-26T15:55:15.659Z,6.77
2022-11-26T15:57:43.943Z,7.83
2022-11-26T16:00:33.652Z,7.77
2022-11-26T16:03:01.282Z,7.40
2022-11-26T16:05:35.344Z,7.40
2022-11-26T16:08:26.347Z,7.63
2022-11-26T16:11:03.213Z,7.27
2022-11-26T16:13:32.391Z,9.33
2022-11-26T16:16:05.111Z,7.83
2022-11-26T16:18:41.227Z,9.40
2022-11-26T16:21:24.520Z,9.60
2022-11-26T16:23:59.435Z,9.97
2022-11-26T16:26:27.432Z,10.10
2022-11-26T16:28:54.886Z,10.30
2022-11-26T16:31:23.329Z,7.90
2022-11-26T16:33:50.641Z,11.00
2022-11-26T16:36:32.584Z,9.30
2022-11-26T16:38:59.576Z,9.27
2022-11-26T16:41:27.019Z,11.13
2022-11-26T16:43:54.041Z,10.30
2022-11-26T16:46:23.737Z,9.10
2022-11-26T16:48:52.277Z,10.50
2022-11-26T16:51:20.895Z,9.83
2022-11-26T16:53:48.028Z,8.77
2022-11-26T16:56:23.252Z,9.70
2022-11-26T16:58:51.165Z,9.77
2022-11-26T17:01:18.402Z,10.10
2022-11-26T17:03:45.660Z,9.40
2022-11-26T17:06:39.496Z,10.20
2022-11-26T17:09:06.731Z,8.83
2022-11-26T17:11:33.728Z,10.17
2022-11-26T17:14:00.701Z,9.90
2022-11-26T17:16:29.186Z,10.00
2022-11-26T17:18:56.361Z,9.00
2022-11-26T17:21:23.641Z,10.70
2022-11-26T17:23:50.748Z,9.77
2022-11-26T17:26:23.670Z,9.40
2022-11-26T17:28:51.483Z,10.37
2022-11-26T17:31:18.967Z,9.70
2022-11-26T17:33:46.172Z,10.33
2022-11-26T17:36:21.708Z,10.50
2022-11-26T17:38:49.637Z,10.73
2022-11-26T17:41:17.084Z,10.77
2022-11-26T17:43:44.442Z,10.97
2022-11-26T17:46:19.239Z,9.60
2022-11-26T17:48:47.961Z,8.90
2022-11-26T17:51:15.458Z,9.90
2022-11-26T17:53:43.213Z,10.53
2022-11-26T17:56:20.430Z,10.87
2022-11-26T17:58:48.419Z,10.70
2022-11-26T18:01:17.128Z,9.60
2022-11-26T18:03:45.349Z,10.80
2022-11-26T18:07:06.170Z,12.43
2022-11-26T18:09:34.404Z,9.93
2022-11-26T18:12:01.914Z,10.13
2022-11-26T18:14:29.148Z,10.30
2022-11-26T18:16:56.274Z,10.90
2022-11-26T18:19:24.209Z,11.17
2022-11-26T18:21:51.899Z,10.17
2022-11-26T18:24:18.993Z,9.70
2022-11-26T18:26:46.611Z,9.60
2022-11-26T18:29:13.972Z,11.13
2022-11-26T18:31:41.110Z,12.50
2022-11-26T18:34:08.712Z,12.03
2022-11-26T18:36:35.813Z,12.20
2022-11-26T18:39:04.850Z,10.80
2022-11-26T18:41:32.786Z,12.93
2022-11-26T18:44:01.911Z,15.90
2022-11-26T18:46:29.117Z,15.10
2022-11-26T18:48:57.872Z,38.67
2022-11-26T18:51:25.212Z,15.83
2022-11-26T18:53:52.911Z,18.77
2022-11-26T18:56:25.625Z,23.43
2022-11-26T18:58:53.281Z,13.30
2022-11-26T19:01:26.512Z,12.43
2022-11-26T19:03:54.582Z,13.70
2022-11-26T19:06:28.861Z,11.57
2022-11-26T19:09:04.927Z,12.40
2022-11-26T19:11:33.831Z,11.77
2022-11-26T19:14:01.383Z,13.30
2022-11-26T19:16:29.014Z,11.33
2022-11-26T19:18:56.167Z,11.80
2022-11-26T19:21:27.389Z,12.60
2022-11-26T19:23:57.006Z,10.80
2022-11-26T19:26:24.576Z,12.70
2022-11-26T19:28:52.323Z,20.47
2022-11-26T19:31:24.021Z,33.10
2022-11-26T19:33:57.944Z,12.93
2022-11-26T19:36:25.146Z,13.53
2022-11-26T19:38:57.864Z,11.83
2022-11-26T19:41:26.273Z,13.17
2022-11-26T19:43:54.398Z,12.07
2022-11-26T19:46:28.196Z,13.10
2022-11-26T19:48:55.877Z,15.30
2022-11-26T19:51:26.329Z,14.83
2022-11-26T19:53:55.790Z,13.60
2022-11-26T19:56:30.461Z,12.90
2022-11-26T19:58:58.706Z,12.77
2022-11-26T20:01:30.025Z,13.80
2022-11-26T20:04:06.159Z,11.77
2022-11-26T20:06:35.333Z,11.50
2022-11-26T20:09:09.643Z,11.10
2022-11-26T20:11:38.705Z,12.33
2022-11-26T20:14:10.748Z,11.20
2022-11-26T20:16:41.313Z,11.47
2022-11-26T20:19:09.848Z,12.43
2022-11-26T20:21:37.512Z,11.47
2022-11-26T20:24:10.985Z,11.03
2022-11-26T20:26:42.119Z,10.53
2022-11-26T20:29:12.784Z,9.50
2022-11-26T20:31:49.907Z,11.60
2022-11-26T20:34:24.421Z,11.40
2022-11-26T20:36:52.131Z,10.90
2022-11-26T20:39:23.243Z,11.77
2022-11-26T20:41:50.721Z,10.70
2022-11-26T20:44:18.252Z,9.67
2022-11-26T20:46:45.423Z,12.03
2022-11-26T20:49:12.536Z,10.60
2022-11-26T20:51:39.794Z,10.60
2022-11-26T20:54:07.232Z,10.00
2022-11-26T20:56:37.765Z,10.43
2022-11-26T20:59:04.848Z,11.57
2022-11-26T21:01:32.619Z,11.93
2022-11-26T21:04:01.294Z,12.80
2022-11-26T21:06:30.603Z,12.83
2022-11-26T21:09:04.436Z,11.83
2022-11-26T21:11:31.954Z,11.37
2022-11-26T21:14:01.699Z,10.67
2022-11-26T21:16:29.373Z,12.23
2022-11-26T21:18:57.400Z,11.03
2022-11-26T21:21:26.307Z,11.60
2022-11-26T21:23:54.744Z,12.00
2022-11-26T21:26:25.338Z,11.27
2022-11-26T21:28:58.022Z,12.43
2022-11-26T21:31:27.308Z,11.23
2022-11-26T21:34:06.684Z,11.80
2022-11-26T21:36:36.309Z,11.43
2022-11-26T21:39:04.524Z,12.40
2022-11-26T21:41:33.585Z,10.07
2022-11-26T21:44:03.772Z,10.57
2022-11-26T21:46:37.572Z,10.53
2022-11-26T21:49:07.110Z,11.10
2022-11-26T21:51:34.194Z,11.13
2022-11-26T21:54:01.269Z,15.77
2022-11-26T21:56:31.507Z,11.80
2022-11-26T21:59:00.809Z,11.00
2022-11-26T22:01:34.556Z,12.50
2022-11-26T22:04:08.047Z,11.50
2022-11-26T22:06:36.511Z,11.20
2022-11-26T22:09:04.696Z,11.63
2022-11-26T22:11:36.112Z,12.00
2022-11-26T22:14:04.527Z,10.67
2022-11-26T22:16:32.582Z,12.20
2022-11-26T22:19:01.017Z,10.90
2022-11-26T22:21:39.138Z,12.63
2022-11-26T22:24:11.089Z,11.90
2022-11-26T22:26:38.418Z,11.13
2022-11-26T22:29:06.796Z,10.10
2022-11-26T22:31:38.903Z,11.53
2022-11-26T22:34:14.544Z,11.27
2022-11-26T22:36:43.920Z,12.50
2022-11-26T22:39:15.077Z,11.83
2022-11-26T22:41:43.800Z,10.77
2022-11-26T22:44:12.741Z,23.00
2022-11-26T22:46:39.946Z,12.03
2022-11-26T22:49:07.854Z,14.67
2022-11-26T22:51:35.703Z,11.87
2022-11-26T22:54:07.175Z,13.70
2022-11-26T22:56:47.558Z,12.23
2022-11-26T22:59:15.056Z,11.47
2022-11-26T23:01:42.238Z,11.57
2022-11-26T23:04:11.237Z,11.67
2022-11-26T23:06:39.930Z,11.90
2022-11-26T23:09:09.302Z,11.30
2022-11-26T23:11:39.231Z,11.23
2022-11-26T23:14:09.289Z,10.60
2022-11-26T23:16:38.311Z,12.70
2022-11-26T23:19:06.353Z,12.17
2022-11-26T23:21:40.085Z,11.27
2022-11-26T23:24:08.006Z,14.00
2022-11-26T23:26:37.763Z,10.70
2022-11-26T23:29:06.492Z,12.60
2022-11-26T23:31:41.940Z,11.07
2022-11-26T23:34:10.095Z,12.47
2022-11-26T23:36:38.122Z,11.30
2022-11-26T23:39:07.575Z,11.13
2022-11-26T23:41:34.761Z,11.87
2022-11-26T23:44:01.978Z,11.17
2022-11-26T23:46:31.928Z,18.40
2022-11-26T23:48:59.110Z,10.80
2022-11-26T23:51:30.336Z,11.00
2022-11-26T23:53:57.830Z,12.47
2022-11-26T23:56:32.347Z,10.90
2022-11-26T23:59:02.988Z,11.80
